sensor_id;sensor_type;location;lat;lon;timestamp;pressure;altitude;pressure_sealevel;temperature;humidity
77881;BME280;67077;50.298;18.996;2023-06-05T00:02:08;98462.73;;;12.83;49.47
77881;BME280;67077;50.298;18.996;2023-06-05T00:04:36;98460.96;;;12.78;49.39
77881;BME280;67077;50.298;18.996;2023-06-05T00:07:04;98460.44;;;12.73;49.24
77881;BME280;67077;50.298;18.996;2023-06-05T00:09:32;98457.19;;;12.69;49.11
77881;BME280;67077;50.298;18.996;2023-06-05T00:12:00;98455.63;;;12.68;48.92
77881;BME280;67077;50.298;18.996;2023-06-05T00:14:28;98457.20;;;12.66;48.90
77881;BME280;67077;50.298;18.996;2023-06-05T00:16:56;98459.32;;;12.63;49.07
77881;BME280;67077;50.298;18.996;2023-06-05T00:19:25;98460.88;;;12.57;49.53
77881;BME280;67077;50.298;18.996;2023-06-05T00:21:53;98464.15;;;12.49;49.64
77881;BME280;67077;50.298;18.996;2023-06-05T00:24:21;98461.52;;;12.42;49.58
77881;BME280;67077;50.298;18.996;2023-06-05T00:26:48;98460.83;;;12.37;49.67
77881;BME280;67077;50.298;18.996;2023-06-05T00:29:17;98457.52;;;12.34;49.64
77881;BME280;67077;50.298;18.996;2023-06-05T00:31:44;98452.57;;;12.33;49.47
77881;BME280;67077;50.298;18.996;2023-06-05T00:34:13;98454.41;;;12.33;49.70
77881;BME280;67077;50.298;18.996;2023-06-05T00:36:41;98453.21;;;12.31;49.75
77881;BME280;67077;50.298;18.996;2023-06-05T00:39:09;98452.90;;;12.30;49.67
77881;BME280;67077;50.298;18.996;2023-06-05T00:41:37;98452.94;;;12.29;49.81
77881;BME280;67077;50.298;18.996;2023-06-05T00:44:09;98454.12;;;12.29;49.97
77881;BME280;67077;50.298;18.996;2023-06-05T00:46:38;98451.09;;;12.25;49.91
77881;BME280;67077;50.298;18.996;2023-06-05T00:49:07;98449.05;;;12.25;49.99
77881;BME280;67077;50.298;18.996;2023-06-05T00:51:36;98448.71;;;12.23;50.13
77881;BME280;67077;50.298;18.996;2023-06-05T00:54:05;98449.21;;;12.20;50.13
77881;BME280;67077;50.298;18.996;2023-06-05T00:56:34;98450.39;;;12.18;50.10
77881;BME280;67077;50.298;18.996;2023-06-05T00:59:03;98448.77;;;12.17;50.21
77881;BME280;67077;50.298;18.996;2023-06-05T01:01:31;98448.26;;;12.15;50.20
77881;BME280;67077;50.298;18.996;2023-06-05T01:04:00;98446.27;;;12.14;50.30
77881;BME280;67077;50.298;18.996;2023-06-05T01:06:30;98448.83;;;12.13;50.31
77881;BME280;67077;50.298;18.996;2023-06-05T01:09:02;98444.23;;;12.13;50.35
77881;BME280;67077;50.298;18.996;2023-06-05T01:11:40;98445.05;;;12.14;50.49
77881;BME280;67077;50.298;18.996;2023-06-05T01:16:48;98442.53;;;12.09;50.99
77881;BME280;67077;50.298;18.996;2023-06-05T01:19:17;98439.61;;;12.05;51.28
77881;BME280;67077;50.298;18.996;2023-06-05T01:21:45;98441.77;;;12.02;51.33
77881;BME280;67077;50.298;18.996;2023-06-05T01:24:13;98443.58;;;11.99;51.39
77881;BME280;67077;50.298;18.996;2023-06-05T01:29:29;98443.86;;;11.93;51.56
77881;BME280;67077;50.298;18.996;2023-06-05T01:32:05;98438.84;;;11.90;51.57
77881;BME280;67077;50.298;18.996;2023-06-05T01:34:36;98440.07;;;11.88;51.72
77881;BME280;67077;50.298;18.996;2023-06-05T01:37:05;98439.21;;;11.85;51.85
77881;BME280;67077;50.298;18.996;2023-06-05T01:39:37;98441.62;;;11.81;52.08
77881;BME280;67077;50.298;18.996;2023-06-05T01:42:06;98441.02;;;11.77;52.10
77881;BME280;67077;50.298;18.996;2023-06-05T01:44:34;98436.23;;;11.75;51.96
77881;BME280;67077;50.298;18.996;2023-06-05T01:47:02;98437.41;;;11.74;51.94
77881;BME280;67077;50.298;18.996;2023-06-05T01:49:31;98438.63;;;11.73;52.08
77881;BME280;67077;50.298;18.996;2023-06-05T01:51:59;98440.77;;;11.70;52.08
77881;BME280;67077;50.298;18.996;2023-06-05T01:54:27;98438.05;;;11.68;52.18
77881;BME280;67077;50.298;18.996;2023-06-05T01:56:56;98436.05;;;11.67;52.09
77881;BME280;67077;50.298;18.996;2023-06-05T01:59:24;98435.94;;;11.65;52.15
77881;BME280;67077;50.298;18.996;2023-06-05T02:01:52;98439.60;;;11.63;52.16
77881;BME280;67077;50.298;18.996;2023-06-05T02:04:20;98432.52;;;11.62;52.26
77881;BME280;67077;50.298;18.996;2023-06-05T02:06:49;98436.31;;;11.62;52.33
77881;BME280;67077;50.298;18.996;2023-06-05T02:09:20;98435.02;;;11.62;52.46
77881;BME280;67077;50.298;18.996;2023-06-05T02:11:48;98433.89;;;11.63;52.41
77881;BME280;67077;50.298;18.996;2023-06-05T02:14:18;98433.14;;;11.63;52.53
77881;BME280;67077;50.298;18.996;2023-06-05T02:16:47;98434.19;;;11.63;52.53
77881;BME280;67077;50.298;18.996;2023-06-05T02:19:15;98432.97;;;11.63;52.53
77881;BME280;67077;50.298;18.996;2023-06-05T02:21:44;98433.89;;;11.63;52.53
77881;BME280;67077;50.298;18.996;2023-06-05T02:24:12;98437.14;;;11.63;52.58
77881;BME280;67077;50.298;18.996;2023-06-05T02:26:40;98435.06;;;11.63;52.63
77881;BME280;67077;50.298;18.996;2023-06-05T02:29:08;98433.85;;;11.63;52.63
77881;BME280;67077;50.298;18.996;2023-06-05T02:31:35;98434.69;;;11.63;52.69
77881;BME280;67077;50.298;18.996;2023-06-05T02:34:04;98434.17;;;11.63;52.61
77881;BME280;67077;50.298;18.996;2023-06-05T02:36:32;98430.70;;;11.65;52.59
77881;BME280;67077;50.298;18.996;2023-06-05T02:39:02;98430.23;;;11.66;52.66
77881;BME280;67077;50.298;18.996;2023-06-05T02:41:32;98430.93;;;11.67;52.59
77881;BME280;67077;50.298;18.996;2023-06-05T02:44:00;98427.77;;;11.66;52.56
77881;BME280;67077;50.298;18.996;2023-06-05T02:46:28;98427.27;;;11.66;52.58
77881;BME280;67077;50.298;18.996;2023-06-05T02:48:56;98429.31;;;11.66;52.63
77881;BME280;67077;50.298;18.996;2023-06-05T02:51:23;98428.98;;;11.64;52.77
77881;BME280;67077;50.298;18.996;2023-06-05T02:53:51;98426.98;;;11.64;52.84
77881;BME280;67077;50.298;18.996;2023-06-05T02:56:19;98429.70;;;11.68;52.70
77881;BME280;67077;50.298;18.996;2023-06-05T02:58:50;98430.07;;;11.77;52.53
77881;BME280;67077;50.298;18.996;2023-06-05T03:01:18;98428.08;;;11.81;52.48
77881;BME280;67077;50.298;18.996;2023-06-05T03:03:48;98428.83;;;11.82;52.42
77881;BME280;67077;50.298;18.996;2023-06-05T03:06:16;98431.31;;;11.84;52.43
77881;BME280;67077;50.298;18.996;2023-06-05T03:08:46;98425.77;;;11.84;52.40
77881;BME280;67077;50.298;18.996;2023-06-05T03:11:14;98426.50;;;11.85;52.30
77881;BME280;67077;50.298;18.996;2023-06-05T03:13:42;98428.58;;;11.86;52.41
77881;BME280;67077;50.298;18.996;2023-06-05T03:16:10;98430.19;;;11.88;52.43
77881;BME280;67077;50.298;18.996;2023-06-05T03:18:38;98429.70;;;11.97;52.34
77881;BME280;67077;50.298;18.996;2023-06-05T03:21:06;98429.38;;;12.18;52.00
77881;BME280;67077;50.298;18.996;2023-06-05T03:23:34;98426.14;;;12.36;51.75
77881;BME280;67077;50.298;18.996;2023-06-05T03:26:02;98429.98;;;12.39;51.49
77881;BME280;67077;50.298;18.996;2023-06-05T03:28:31;98428.79;;;12.37;51.50
77881;BME280;67077;50.298;18.996;2023-06-05T03:31:01;98429.87;;;12.34;51.54
77881;BME280;67077;50.298;18.996;2023-06-05T03:33:29;98425.73;;;12.29;51.68
77881;BME280;67077;50.298;18.996;2023-06-05T03:35:57;98426.91;;;12.24;51.71
77881;BME280;67077;50.298;18.996;2023-06-05T03:38:25;98431.86;;;12.20;51.81
77881;BME280;67077;50.298;18.996;2023-06-05T03:40:53;98430.54;;;12.15;51.97
77881;BME280;67077;50.298;18.996;2023-06-05T03:43:21;98432.91;;;12.15;52.03
77881;BME280;67077;50.298;18.996;2023-06-05T03:45:48;98431.81;;;12.28;51.97
77881;BME280;67077;50.298;18.996;2023-06-05T03:48:17;98434.56;;;12.46;51.71
77881;BME280;67077;50.298;18.996;2023-06-05T03:50:48;98438.02;;;12.77;51.17
77881;BME280;67077;50.298;18.996;2023-06-05T03:53:19;98436.34;;;13.13;50.44
77881;BME280;67077;50.298;18.996;2023-06-05T03:55:47;98434.82;;;13.46;49.80
77881;BME280;67077;50.298;18.996;2023-06-05T03:58:18;98433.94;;;13.80;49.09
77881;BME280;67077;50.298;18.996;2023-06-05T04:00:47;98435.15;;;14.12;48.34
77881;BME280;67077;50.298;18.996;2023-06-05T04:03:20;98434.93;;;14.44;47.61
77881;BME280;67077;50.298;18.996;2023-06-05T04:05:48;98433.16;;;14.70;47.20
77881;BME280;67077;50.298;18.996;2023-06-05T04:08:16;98431.98;;;14.97;46.64
77881;BME280;67077;50.298;18.996;2023-06-05T04:10:44;98428.99;;;15.23;45.95
77881;BME280;67077;50.298;18.996;2023-06-05T04:13:12;98428.71;;;15.51;45.48
77881;BME280;67077;50.298;18.996;2023-06-05T04:15:40;98426.53;;;15.79;44.81
77881;BME280;67077;50.298;18.996;2023-06-05T04:18:08;98426.02;;;16.02;44.48
77881;BME280;67077;50.298;18.996;2023-06-05T04:20:36;98425.59;;;16.28;43.77
77881;BME280;67077;50.298;18.996;2023-06-05T04:23:04;98424.73;;;16.53;43.71
77881;BME280;67077;50.298;18.996;2023-06-05T04:25:32;98421.73;;;16.80;43.38
77881;BME280;67077;50.298;18.996;2023-06-05T04:28:00;98420.75;;;16.98;42.64
77881;BME280;67077;50.298;18.996;2023-06-05T04:30:28;98420.05;;;17.12;42.02
77881;BME280;67077;50.298;18.996;2023-06-05T04:32:57;98415.66;;;17.17;41.61
77881;BME280;67077;50.298;18.996;2023-06-05T04:35:25;98412.87;;;17.22;41.67
77881;BME280;67077;50.298;18.996;2023-06-05T04:37:54;98415.51;;;17.37;41.82
77881;BME280;67077;50.298;18.996;2023-06-05T04:40:24;98415.23;;;17.54;41.43
77881;BME280;67077;50.298;18.996;2023-06-05T04:42:52;98416.74;;;17.71;41.10
77881;BME280;67077;50.298;18.996;2023-06-05T04:45:22;98415.70;;;17.91;40.90
77881;BME280;67077;50.298;18.996;2023-06-05T04:47:49;98416.41;;;18.06;40.57
77881;BME280;67077;50.298;18.996;2023-06-05T04:50:23;98418.35;;;18.17;40.36
77881;BME280;67077;50.298;18.996;2023-06-05T04:52:52;98418.31;;;18.31;39.96
77881;BME280;67077;50.298;18.996;2023-06-05T04:55:21;98422.30;;;18.42;39.52
77881;BME280;67077;50.298;18.996;2023-06-05T04:57:50;98421.85;;;18.49;39.56
77881;BME280;67077;50.298;18.996;2023-06-05T05:00:18;98417.63;;;18.66;39.44
77881;BME280;67077;50.298;18.996;2023-06-05T05:02:47;98416.19;;;18.81;39.01
77881;BME280;67077;50.298;18.996;2023-06-05T05:05:15;98417.13;;;18.89;38.96
77881;BME280;67077;50.298;18.996;2023-06-05T05:07:44;98416.02;;;19.04;38.92
77881;BME280;67077;50.298;18.996;2023-06-05T05:10:13;98414.98;;;19.19;38.70
77881;BME280;67077;50.298;18.996;2023-06-05T05:12:42;98418.77;;;19.21;38.37
77881;BME280;67077;50.298;18.996;2023-06-05T05:15:10;98414.73;;;19.20;38.45
77881;BME280;67077;50.298;18.996;2023-06-05T05:17:39;98415.66;;;19.22;38.61
77881;BME280;67077;50.298;18.996;2023-06-05T05:20:07;98419.86;;;19.30;38.49
77881;BME280;67077;50.298;18.996;2023-06-05T05:22:35;98421.81;;;19.36;38.34
77881;BME280;67077;50.298;18.996;2023-06-05T05:25:04;98419.79;;;19.39;38.36
77881;BME280;67077;50.298;18.996;2023-06-05T05:27:32;98415.50;;;19.35;38.13
77881;BME280;67077;50.298;18.996;2023-06-05T05:30:00;98421.98;;;19.14;38.33
77881;BME280;67077;50.298;18.996;2023-06-05T05:32:28;98421.91;;;18.92;38.91
77881;BME280;67077;50.298;18.996;2023-06-05T05:34:56;98422.71;;;18.89;39.30
77881;BME280;67077;50.298;18.996;2023-06-05T05:37:24;98417.20;;;19.02;39.56
77881;BME280;67077;50.298;18.996;2023-06-05T05:39:53;98420.39;;;19.14;39.23
77881;BME280;67077;50.298;18.996;2023-06-05T05:42:21;98421.40;;;19.18;39.21
77881;BME280;67077;50.298;18.996;2023-06-05T05:44:49;98421.80;;;19.19;39.26
77881;BME280;67077;50.298;18.996;2023-06-05T05:47:17;98421.86;;;19.13;39.33
77881;BME280;67077;50.298;18.996;2023-06-05T05:49:45;98420.43;;;19.01;39.56
77881;BME280;67077;50.298;18.996;2023-06-05T05:52:13;98421.11;;;18.98;39.66
77881;BME280;67077;50.298;18.996;2023-06-05T05:54:41;98419.86;;;18.99;39.85
77881;BME280;67077;50.298;18.996;2023-06-05T05:57:09;98423.07;;;19.00;40.03
77881;BME280;67077;50.298;18.996;2023-06-05T05:59:40;98426.20;;;19.00;39.97
77881;BME280;67077;50.298;18.996;2023-06-05T06:02:11;98424.63;;;18.98;40.25
77881;BME280;67077;50.298;18.996;2023-06-05T06:04:40;98425.74;;;18.93;40.48
77881;BME280;67077;50.298;18.996;2023-06-05T06:07:09;98423.81;;;18.80;40.34
77881;BME280;67077;50.298;18.996;2023-06-05T06:09:38;98432.96;;;18.61;40.62
77881;BME280;67077;50.298;18.996;2023-06-05T06:12:06;98433.85;;;18.50;41.07
77881;BME280;67077;50.298;18.996;2023-06-05T06:14:36;98434.23;;;18.49;41.45
77881;BME280;67077;50.298;18.996;2023-06-05T06:17:04;98438.33;;;18.55;41.80
77881;BME280;67077;50.298;18.996;2023-06-05T06:19:33;98439.02;;;18.59;41.13
77881;BME280;67077;50.298;18.996;2023-06-05T06:22:01;98440.42;;;18.50;40.93
77881;BME280;67077;50.298;18.996;2023-06-05T06:24:29;98438.89;;;18.43;40.99
77881;BME280;67077;50.298;18.996;2023-06-05T06:26:57;98441.58;;;18.42;41.22
77881;BME280;67077;50.298;18.996;2023-06-05T06:29:25;98439.38;;;18.40;41.04
77881;BME280;67077;50.298;18.996;2023-06-05T06:31:55;98438.91;;;18.38;41.16
77881;BME280;67077;50.298;18.996;2023-06-05T06:34:23;98438.05;;;18.36;41.05
77881;BME280;67077;50.298;18.996;2023-06-05T06:36:52;98438.44;;;18.36;40.99
77881;BME280;67077;50.298;18.996;2023-06-05T06:39:20;98436.66;;;18.44;41.00
77881;BME280;67077;50.298;18.996;2023-06-05T06:41:49;98436.46;;;18.54;40.73
77881;BME280;67077;50.298;18.996;2023-06-05T06:44:19;98434.90;;;18.64;40.80
77881;BME280;67077;50.298;18.996;2023-06-05T06:46:47;98434.29;;;18.74;40.30
77881;BME280;67077;50.298;18.996;2023-06-05T06:49:15;98432.01;;;18.78;40.32
77881;BME280;67077;50.298;18.996;2023-06-05T06:51:43;98434.38;;;18.81;39.83
77881;BME280;67077;50.298;18.996;2023-06-05T06:54:11;98428.74;;;18.88;39.99
77881;BME280;67077;50.298;18.996;2023-06-05T06:56:39;98429.98;;;18.95;40.03
77881;BME280;67077;50.298;18.996;2023-06-05T06:59:14;98429.24;;;18.99;39.67
77881;BME280;67077;50.298;18.996;2023-06-05T07:01:46;98429.52;;;19.08;39.81
77881;BME280;67077;50.298;18.996;2023-06-05T07:04:15;98427.90;;;19.24;39.63
77881;BME280;67077;50.298;18.996;2023-06-05T07:06:49;98428.06;;;19.38;38.69
77881;BME280;67077;50.298;18.996;2023-06-05T07:09:17;98428.67;;;19.41;37.98
77881;BME280;67077;50.298;18.996;2023-06-05T07:11:47;98424.80;;;19.44;38.26
77881;BME280;67077;50.298;18.996;2023-06-05T07:14:15;98421.70;;;19.50;38.76
77881;BME280;67077;50.298;18.996;2023-06-05T07:16:43;98417.66;;;19.61;38.92
77881;BME280;67077;50.298;18.996;2023-06-05T07:19:15;98421.59;;;19.79;38.40
77881;BME280;67077;50.298;18.996;2023-06-05T07:21:45;98422.73;;;19.96;38.09
77881;BME280;67077;50.298;18.996;2023-06-05T07:24:13;98423.35;;;20.05;37.57
77881;BME280;67077;50.298;18.996;2023-06-05T07:26:43;98426.11;;;20.15;38.05
77881;BME280;67077;50.298;18.996;2023-06-05T07:29:12;98424.33;;;20.33;37.86
77881;BME280;67077;50.298;18.996;2023-06-05T07:31:54;98427.31;;;20.53;37.56
77881;BME280;67077;50.298;18.996;2023-06-05T07:34:26;98423.79;;;20.68;36.90
77881;BME280;67077;50.298;18.996;2023-06-05T07:37:01;98424.70;;;20.78;36.66
77881;BME280;67077;50.298;18.996;2023-06-05T07:39:42;98422.02;;;20.85;36.47
77881;BME280;67077;50.298;18.996;2023-06-05T07:42:23;98424.19;;;20.92;36.42
77881;BME280;67077;50.298;18.996;2023-06-05T07:44:51;98417.20;;;21.01;36.70
77881;BME280;67077;50.298;18.996;2023-06-05T07:47:20;98418.11;;;21.06;35.77
77881;BME280;67077;50.298;18.996;2023-06-05T07:50:02;98417.77;;;21.10;36.24
77881;BME280;67077;50.298;18.996;2023-06-05T07:52:35;98416.27;;;21.16;35.55
77881;BME280;67077;50.298;18.996;2023-06-05T07:55:04;98416.95;;;21.15;35.53
77881;BME280;67077;50.298;18.996;2023-06-05T07:57:32;98417.70;;;21.14;34.80
77881;BME280;67077;50.298;18.996;2023-06-05T08:00:01;98410.00;;;21.12;34.57
77881;BME280;67077;50.298;18.996;2023-06-05T08:02:35;98411.77;;;21.14;34.52
77881;BME280;67077;50.298;18.996;2023-06-05T08:05:06;98411.66;;;21.14;34.57
77881;BME280;67077;50.298;18.996;2023-06-05T08:07:36;98410.71;;;21.12;33.73
77881;BME280;67077;50.298;18.996;2023-06-05T08:10:06;98409.96;;;21.09;32.99
77881;BME280;67077;50.298;18.996;2023-06-05T08:12:36;98403.15;;;21.08;33.26
77881;BME280;67077;50.298;18.996;2023-06-05T08:15:07;98402.27;;;21.14;33.74
77881;BME280;67077;50.298;18.996;2023-06-05T08:17:37;98398.21;;;21.30;33.08
77881;BME280;67077;50.298;18.996;2023-06-05T08:20:09;98398.61;;;21.39;32.90
77881;BME280;67077;50.298;18.996;2023-06-05T08:22:55;98394.02;;;21.42;32.71
77881;BME280;67077;50.298;18.996;2023-06-05T08:25:27;98391.19;;;21.52;32.36
77881;BME280;67077;50.298;18.996;2023-06-05T08:27:55;98393.45;;;21.60;31.94
77881;BME280;67077;50.298;18.996;2023-06-05T08:30:25;98393.90;;;21.58;32.00
77881;BME280;67077;50.298;18.996;2023-06-05T08:33:07;98388.30;;;21.57;32.37
77881;BME280;67077;50.298;18.996;2023-06-05T08:35:41;98386.80;;;21.60;32.38
77881;BME280;67077;50.298;18.996;2023-06-05T08:38:10;98391.69;;;21.71;32.72
77881;BME280;67077;50.298;18.996;2023-06-05T08:40:55;98395.71;;;21.80;31.74
77881;BME280;67077;50.298;18.996;2023-06-05T08:44:15;98394.09;;;21.83;31.71
77881;BME280;67077;50.298;18.996;2023-06-05T08:46:48;98394.77;;;21.82;31.77
77881;BME280;67077;50.298;18.996;2023-06-05T08:49:20;98388.73;;;21.90;32.47
77881;BME280;67077;50.298;18.996;2023-06-05T08:51:54;98388.67;;;22.05;32.17
77881;BME280;67077;50.298;18.996;2023-06-05T08:54:24;98385.65;;;22.14;31.64
77881;BME280;67077;50.298;18.996;2023-06-05T08:56:55;98384.12;;;22.20;31.43
77881;BME280;67077;50.298;18.996;2023-06-05T09:04:59;98387.96;;;22.43;30.31
77881;BME280;67077;50.298;18.996;2023-06-05T09:07:29;98388.96;;;22.33;30.80
77881;BME280;67077;50.298;18.996;2023-06-05T09:09:59;98389.21;;;22.31;30.92
77881;BME280;67077;50.298;18.996;2023-06-05T09:12:27;98388.52;;;22.35;31.41
77881;BME280;67077;50.298;18.996;2023-06-05T09:14:56;98385.27;;;22.47;31.25
77881;BME280;67077;50.298;18.996;2023-06-05T09:17:28;98390.01;;;22.55;30.70
77881;BME280;67077;50.298;18.996;2023-06-05T09:19:56;98390.27;;;22.57;30.49
77881;BME280;67077;50.298;18.996;2023-06-05T09:22:33;98393.73;;;22.57;30.48
77881;BME280;67077;50.298;18.996;2023-06-05T09:25:04;98392.80;;;22.56;30.62
77881;BME280;67077;50.298;18.996;2023-06-05T09:27:32;98393.67;;;22.57;30.42
77881;BME280;67077;50.298;18.996;2023-06-05T09:30:02;98391.98;;;22.61;30.71
77881;BME280;67077;50.298;18.996;2023-06-05T09:32:32;98390.83;;;22.64;30.51
77881;BME280;67077;50.298;18.996;2023-06-05T09:35:00;98390.77;;;22.66;30.36
77881;BME280;67077;50.298;18.996;2023-06-05T09:37:32;98385.09;;;22.69;30.23
77881;BME280;67077;50.298;18.996;2023-06-05T09:40:04;98384.70;;;22.77;30.05
77881;BME280;67077;50.298;18.996;2023-06-05T09:42:34;98385.32;;;22.77;29.95
77881;BME280;67077;50.298;18.996;2023-06-05T09:45:04;98379.27;;;22.82;29.99
77881;BME280;67077;50.298;18.996;2023-06-05T09:47:32;98378.49;;;22.90;30.15
77881;BME280;67077;50.298;18.996;2023-06-05T09:50:00;98374.67;;;23.06;29.87
77881;BME280;67077;50.298;18.996;2023-06-05T09:52:34;98368.95;;;23.15;30.04
77881;BME280;67077;50.298;18.996;2023-06-05T09:55:06;98370.92;;;23.24;29.93
77881;BME280;67077;50.298;18.996;2023-06-05T09:57:37;98370.99;;;23.28;29.61
77881;BME280;67077;50.298;18.996;2023-06-05T10:00:07;98368.69;;;23.32;29.53
77881;BME280;67077;50.298;18.996;2023-06-05T10:02:59;98359.91;;;23.41;29.66
77881;BME280;67077;50.298;18.996;2023-06-05T10:05:38;98361.47;;;23.57;30.17
77881;BME280;67077;50.298;18.996;2023-06-05T10:08:08;98358.95;;;23.73;29.83
77881;BME280;67077;50.298;18.996;2023-06-05T10:10:37;98351.85;;;23.86;29.45
77881;BME280;67077;50.298;18.996;2023-06-05T10:15:54;98358.42;;;23.90;28.78
77881;BME280;67077;50.298;18.996;2023-06-05T10:18:26;98356.88;;;23.86;28.54
77881;BME280;67077;50.298;18.996;2023-06-05T10:20:58;98352.02;;;23.74;28.38
77881;BME280;67077;50.298;18.996;2023-06-05T10:23:28;98350.96;;;23.64;28.74
77881;BME280;67077;50.298;18.996;2023-06-05T10:26:03;98346.16;;;23.64;28.83
77881;BME280;67077;50.298;18.996;2023-06-05T10:31:57;98346.11;;;23.67;28.58
77881;BME280;67077;50.298;18.996;2023-06-05T10:40:15;98339.02;;;23.92;28.34
77881;BME280;67077;50.298;18.996;2023-06-05T10:42:45;98336.87;;;24.01;28.67
77881;BME280;67077;50.298;18.996;2023-06-05T10:45:32;98333.68;;;24.10;28.59
77881;BME280;67077;50.298;18.996;2023-06-05T10:48:02;98333.17;;;24.22;28.58
77881;BME280;67077;50.298;18.996;2023-06-05T10:53:45;98335.14;;;24.34;28.38
77881;BME280;67077;50.298;18.996;2023-06-05T10:56:54;98336.69;;;24.51;28.42
77881;BME280;67077;50.298;18.996;2023-06-05T10:59:32;98333.16;;;24.61;28.04
77881;BME280;67077;50.298;18.996;2023-06-05T11:07:25;98324.02;;;24.66;27.84
77881;BME280;67077;50.298;18.996;2023-06-05T11:15:12;98320.87;;;24.69;28.46
77881;BME280;67077;50.298;18.996;2023-06-05T11:17:47;98322.34;;;24.78;28.14
77881;BME280;67077;50.298;18.996;2023-06-05T11:20:52;98327.68;;;24.76;28.45
77881;BME280;67077;50.298;18.996;2023-06-05T11:23:26;98325.94;;;24.80;28.32
77881;BME280;67077;50.298;18.996;2023-06-05T11:26:38;98323.17;;;24.84;28.08
77881;BME280;67077;50.298;18.996;2023-06-05T11:29:15;98326.45;;;24.94;28.10
77881;BME280;67077;50.298;18.996;2023-06-05T11:31:45;98327.17;;;25.01;27.86
77881;BME280;67077;50.298;18.996;2023-06-05T11:34:15;98322.55;;;24.95;27.36
77881;BME280;67077;50.298;18.996;2023-06-05T11:36:45;98324.30;;;24.88;27.67
77881;BME280;67077;50.298;18.996;2023-06-05T11:39:43;98324.08;;;24.77;27.58
77881;BME280;67077;50.298;18.996;2023-06-05T11:42:23;98320.35;;;24.67;27.41
77881;BME280;67077;50.298;18.996;2023-06-05T11:44:53;98313.63;;;24.62;28.07
77881;BME280;67077;50.298;18.996;2023-06-05T11:47:23;98314.59;;;24.70;29.00
77881;BME280;67077;50.298;18.996;2023-06-05T11:49:52;98311.36;;;24.82;28.40
77881;BME280;67077;50.298;18.996;2023-06-05T11:52:26;98308.95;;;24.87;28.12
77881;BME280;67077;50.298;18.996;2023-06-05T11:55:17;98311.15;;;24.85;27.75
77881;BME280;67077;50.298;18.996;2023-06-05T12:04:23;98303.79;;;25.01;27.58
77881;BME280;67077;50.298;18.996;2023-06-05T12:10:09;98303.63;;;24.88;27.91
77881;BME280;67077;50.298;18.996;2023-06-05T12:12:54;98298.48;;;24.88;27.68
77881;BME280;67077;50.298;18.996;2023-06-05T12:15:30;98296.20;;;24.91;27.68
77881;BME280;67077;50.298;18.996;2023-06-05T12:18:08;98298.09;;;24.85;27.56
77881;BME280;67077;50.298;18.996;2023-06-05T12:20:49;98293.12;;;24.74;27.86
77881;BME280;67077;50.298;18.996;2023-06-05T12:23:36;98291.73;;;24.74;27.90
77881;BME280;67077;50.298;18.996;2023-06-05T12:35:25;98282.23;;;25.13;27.67
77881;BME280;67077;50.298;18.996;2023-06-05T12:38:01;98284.92;;;25.11;27.16
77881;BME280;67077;50.298;18.996;2023-06-05T12:47:27;98274.61;;;25.05;27.46
77881;BME280;67077;50.298;18.996;2023-06-05T12:50:27;98276.42;;;24.95;27.54
77881;BME280;67077;50.298;18.996;2023-06-05T12:53:05;98273.75;;;24.83;27.81
77881;BME280;67077;50.298;18.996;2023-06-05T12:55:35;98271.51;;;24.76;27.99
77881;BME280;67077;50.298;18.996;2023-06-05T13:03:38;98261.75;;;24.52;28.35
77881;BME280;67077;50.298;18.996;2023-06-05T13:15:55;98252.09;;;24.26;28.53
77881;BME280;67077;50.298;18.996;2023-06-05T13:18:50;98254.39;;;24.28;28.67
77881;BME280;67077;50.298;18.996;2023-06-05T13:30:48;98246.11;;;24.47;28.60
77881;BME280;67077;50.298;18.996;2023-06-05T13:33:43;98249.66;;;24.58;28.37
77881;BME280;67077;50.298;18.996;2023-06-05T13:36:36;98245.38;;;24.59;28.34
77881;BME280;67077;50.298;18.996;2023-06-05T13:40:03;98237.55;;;24.61;28.69
77881;BME280;67077;50.298;18.996;2023-06-05T13:43:17;98236.98;;;24.77;28.31
77881;BME280;67077;50.298;18.996;2023-06-05T13:46:32;98237.05;;;24.69;27.76
77881;BME280;67077;50.298;18.996;2023-06-05T13:49:39;98237.10;;;24.63;28.16
77881;BME280;67077;50.298;18.996;2023-06-05T13:52:25;98233.52;;;24.57;28.12
77881;BME280;67077;50.298;18.996;2023-06-05T13:55:14;98230.01;;;24.51;28.39
77881;BME280;67077;50.298;18.996;2023-06-05T13:57:53;98225.75;;;24.47;28.20
77881;BME280;67077;50.298;18.996;2023-06-05T14:00:59;98224.08;;;24.45;28.48
77881;BME280;67077;50.298;18.996;2023-06-05T14:04:18;98221.83;;;24.44;28.82
77881;BME280;67077;50.298;18.996;2023-06-05T14:06:56;98225.25;;;24.51;28.83
77881;BME280;67077;50.298;18.996;2023-06-05T14:09:56;98221.66;;;24.56;28.72
77881;BME280;67077;50.298;18.996;2023-06-05T14:12:56;98217.07;;;24.67;28.50
77881;BME280;67077;50.298;18.996;2023-06-05T14:15:27;98213.46;;;24.68;28.44
77881;BME280;67077;50.298;18.996;2023-06-05T14:17:55;98218.36;;;24.61;28.22
77881;BME280;67077;50.298;18.996;2023-06-05T14:20:23;98215.16;;;24.46;28.28
77881;BME280;67077;50.298;18.996;2023-06-05T14:22:51;98214.05;;;24.38;28.57
77881;BME280;67077;50.298;18.996;2023-06-05T14:25:19;98211.61;;;24.37;28.56
77881;BME280;67077;50.298;18.996;2023-06-05T14:27:47;98213.05;;;24.39;28.55
77881;BME280;67077;50.298;18.996;2023-06-05T14:30:15;98208.11;;;24.30;28.80
77881;BME280;67077;50.298;18.996;2023-06-05T14:32:43;98210.17;;;24.29;28.96
77881;BME280;67077;50.298;18.996;2023-06-05T14:35:11;98209.10;;;24.33;29.29
77881;BME280;67077;50.298;18.996;2023-06-05T14:37:39;98208.63;;;24.32;28.57
77881;BME280;67077;50.298;18.996;2023-06-05T14:40:07;98206.64;;;24.28;29.06
77881;BME280;67077;50.298;18.996;2023-06-05T14:42:35;98206.07;;;24.26;28.84
77881;BME280;67077;50.298;18.996;2023-06-05T14:45:04;98208.72;;;24.21;28.72